sensor_id;sensor_type;location;lat;lon;timestamp;temperature;humidity
12981;DHT22;6555;50.468;8.480;2024-01-11T00:02:44;-3.70;49.70
12981;DHT22;6555;50.468;8.480;2024-01-11T00:07:47;-3.70;49.80
12981;DHT22;6555;50.468;8.480;2024-01-11T00:12:51;-3.70;49.80
12981;DHT22;6555;50.468;8.480;2024-01-11T00:17:55;-3.70;50.00
12981;DHT22;6555;50.468;8.480;2024-01-11T00:22:58;-3.70;50.10
12981;DHT22;6555;50.468;8.480;2024-01-11T00:28:02;-3.70;50.10
12981;DHT22;6555;50.468;8.480;2024-01-11T00:33:06;-3.60;50.00
12981;DHT22;6555;50.468;8.480;2024-01-11T00:38:10;-3.60;49.80
12981;DHT22;6555;50.468;8.480;2024-01-11T00:43:13;-3.70;49.80
12981;DHT22;6555;50.468;8.480;2024-01-11T00:48:18;-3.70;50.00
12981;DHT22;6555;50.468;8.480;2024-01-11T00:53:21;-3.70;50.20
12981;DHT22;6555;50.468;8.480;2024-01-11T00:58:24;-3.60;50.30
12981;DHT22;6555;50.468;8.480;2024-01-11T01:03:28;-3.50;50.50
12981;DHT22;6555;50.468;8.480;2024-01-11T01:08:32;-3.50;50.40
12981;DHT22;6555;50.468;8.480;2024-01-11T01:13:35;-3.40;50.30
12981;DHT22;6555;50.468;8.480;2024-01-11T01:18:39;-3.40;50.20
12981;DHT22;6555;50.468;8.480;2024-01-11T01:23:43;-3.40;50.10
12981;DHT22;6555;50.468;8.480;2024-01-11T01:28:45;-3.30;50.30
12981;DHT22;6555;50.468;8.480;2024-01-11T01:33:50;-3.30;50.30
12981;DHT22;6555;50.468;8.480;2024-01-11T01:38:53;-3.30;50.40
12981;DHT22;6555;50.468;8.480;2024-01-11T01:43:56;-3.30;50.40
12981;DHT22;6555;50.468;8.480;2024-01-11T01:49:01;-3.20;50.40
12981;DHT22;6555;50.468;8.480;2024-01-11T01:54:04;-3.20;50.40
12981;DHT22;6555;50.468;8.480;2024-01-11T01:59:09;-3.20;50.40
12981;DHT22;6555;50.468;8.480;2024-01-11T02:04:14;-3.10;50.40
12981;DHT22;6555;50.468;8.480;2024-01-11T02:09:17;-3.10;50.30
12981;DHT22;6555;50.468;8.480;2024-01-11T02:14:20;-3.10;50.30
12981;DHT22;6555;50.468;8.480;2024-01-11T02:19:25;-3.10;50.30
12981;DHT22;6555;50.468;8.480;2024-01-11T02:24:29;-3.10;50.30
12981;DHT22;6555;50.468;8.480;2024-01-11T02:29:32;-3.10;50.30
12981;DHT22;6555;50.468;8.480;2024-01-11T02:34:35;-3.10;50.40
12981;DHT22;6555;50.468;8.480;2024-01-11T02:39:40;-3.10;50.40
12981;DHT22;6555;50.468;8.480;2024-01-11T02:44:44;-3.10;50.30
12981;DHT22;6555;50.468;8.480;2024-01-11T02:49:47;-3.10;50.20
12981;DHT22;6555;50.468;8.480;2024-01-11T02:54:51;-3.10;50.20
12981;DHT22;6555;50.468;8.480;2024-01-11T02:59:54;-3.10;50.20
12981;DHT22;6555;50.468;8.480;2024-01-11T03:04:57;-3.20;50.10
12981;DHT22;6555;50.468;8.480;2024-01-11T03:10:01;-3.20;50.00
12981;DHT22;6555;50.468;8.480;2024-01-11T03:15:05;-3.20;50.00
12981;DHT22;6555;50.468;8.480;2024-01-11T03:20:09;-3.30;50.00
12981;DHT22;6555;50.468;8.480;2024-01-11T03:25:13;-3.40;49.80
12981;DHT22;6555;50.468;8.480;2024-01-11T03:30:17;-3.40;49.80
12981;DHT22;6555;50.468;8.480;2024-01-11T03:35:20;-3.50;49.80
12981;DHT22;6555;50.468;8.480;2024-01-11T03:40:25;-3.60;49.60
12981;DHT22;6555;50.468;8.480;2024-01-11T03:45:28;-3.70;49.60
12981;DHT22;6555;50.468;8.480;2024-01-11T03:50:31;-3.80;49.70
12981;DHT22;6555;50.468;8.480;2024-01-11T03:55:35;-3.90;49.80
12981;DHT22;6555;50.468;8.480;2024-01-11T04:00:39;-3.80;50.00
12981;DHT22;6555;50.468;8.480;2024-01-11T04:05:42;-3.90;50.00
12981;DHT22;6555;50.468;8.480;2024-01-11T04:10:46;-3.90;49.90
12981;DHT22;6555;50.468;8.480;2024-01-11T04:15:49;-3.90;49.90
12981;DHT22;6555;50.468;8.480;2024-01-11T04:20:52;-3.90;49.90
12981;DHT22;6555;50.468;8.480;2024-01-11T04:25:57;-4.00;49.90
12981;DHT22;6555;50.468;8.480;2024-01-11T04:31:00;-3.90;49.90
12981;DHT22;6555;50.468;8.480;2024-01-11T04:36:03;-4.00;49.80
12981;DHT22;6555;50.468;8.480;2024-01-11T04:41:09;-4.00;49.90
12981;DHT22;6555;50.468;8.480;2024-01-11T04:46:13;-4.00;49.90
12981;DHT22;6555;50.468;8.480;2024-01-11T04:51:18;-4.00;49.90
12981;DHT22;6555;50.468;8.480;2024-01-11T04:56:22;-4.10;49.90
12981;DHT22;6555;50.468;8.480;2024-01-11T05:01:26;-4.10;49.90
12981;DHT22;6555;50.468;8.480;2024-01-11T05:06:29;-4.10;49.70
12981;DHT22;6555;50.468;8.480;2024-01-11T05:11:33;-4.20;49.50
12981;DHT22;6555;50.468;8.480;2024-01-11T05:16:36;-4.30;49.70
12981;DHT22;6555;50.468;8.480;2024-01-11T05:21:41;-4.30;49.80
12981;DHT22;6555;50.468;8.480;2024-01-11T05:26:45;-4.30;49.80
12981;DHT22;6555;50.468;8.480;2024-01-11T05:31:49;-4.30;49.90
12981;DHT22;6555;50.468;8.480;2024-01-11T05:36:52;-4.30;49.90
12981;DHT22;6555;50.468;8.480;2024-01-11T05:41:56;-4.30;49.80
12981;DHT22;6555;50.468;8.480;2024-01-11T05:46:59;-4.30;49.80
12981;DHT22;6555;50.468;8.480;2024-01-11T05:52:02;-4.30;49.90
12981;DHT22;6555;50.468;8.480;2024-01-11T05:57:07;-4.40;49.70
12981;DHT22;6555;50.468;8.480;2024-01-11T06:02:10;-4.40;49.80
12981;DHT22;6555;50.468;8.480;2024-01-11T06:07:13;-4.40;49.70
12981;DHT22;6555;50.468;8.480;2024-01-11T06:12:17;-4.40;49.60
12981;DHT22;6555;50.468;8.480;2024-01-11T06:17:20;-4.60;49.50
12981;DHT22;6555;50.468;8.480;2024-01-11T06:22:23;-4.60;49.70
12981;DHT22;6555;50.468;8.480;2024-01-11T06:27:28;-4.70;49.80
12981;DHT22;6555;50.468;8.480;2024-01-11T06:32:31;-4.70;49.90
12981;DHT22;6555;50.468;8.480;2024-01-11T06:37:34;-4.70;49.90
12981;DHT22;6555;50.468;8.480;2024-01-11T06:42:38;-4.70;49.90
12981;DHT22;6555;50.468;8.480;2024-01-11T06:47:41;-4.70;49.80
12981;DHT22;6555;50.468;8.480;2024-01-11T06:52:47;-4.70;49.90
12981;DHT22;6555;50.468;8.480;2024-01-11T06:57:51;-4.70;50.00
12981;DHT22;6555;50.468;8.480;2024-01-11T07:02:54;-4.70;49.90
12981;DHT22;6555;50.468;8.480;2024-01-11T07:07:58;-4.70;49.90
12981;DHT22;6555;50.468;8.480;2024-01-11T07:13:02;-4.70;49.80
12981;DHT22;6555;50.468;8.480;2024-01-11T07:18:05;-4.70;49.80
12981;DHT22;6555;50.468;8.480;2024-01-11T07:23:08;-4.80;49.70
12981;DHT22;6555;50.468;8.480;2024-01-11T07:28:13;-4.80;49.70
12981;DHT22;6555;50.468;8.480;2024-01-11T07:33:16;-4.90;49.70
12981;DHT22;6555;50.468;8.480;2024-01-11T07:38:19;-4.90;49.60
12981;DHT22;6555;50.468;8.480;2024-01-11T07:43:23;-4.90;49.60
12981;DHT22;6555;50.468;8.480;2024-01-11T07:48:35;-5.00;49.60
12981;DHT22;6555;50.468;8.480;2024-01-11T07:53:38;-5.00;49.70
12981;DHT22;6555;50.468;8.480;2024-01-11T07:58:44;-5.00;49.70
12981;DHT22;6555;50.468;8.480;2024-01-11T08:03:50;-5.10;49.60
12981;DHT22;6555;50.468;8.480;2024-01-11T08:08:54;-5.20;49.60
12981;DHT22;6555;50.468;8.480;2024-01-11T08:13:59;-5.20;49.70
12981;DHT22;6555;50.468;8.480;2024-01-11T08:19:02;-5.20;49.90
12981;DHT22;6555;50.468;8.480;2024-01-11T08:24:06;-5.10;50.20
12981;DHT22;6555;50.468;8.480;2024-01-11T08:29:11;-5.00;50.50
12981;DHT22;6555;50.468;8.480;2024-01-11T08:34:14;-4.80;50.80
12981;DHT22;6555;50.468;8.480;2024-01-11T08:39:19;-4.60;50.80
12981;DHT22;6555;50.468;8.480;2024-01-11T08:44:24;-4.50;50.80
12981;DHT22;6555;50.468;8.480;2024-01-11T08:49:27;-4.30;50.90
12981;DHT22;6555;50.468;8.480;2024-01-11T08:54:30;-4.10;51.00
12981;DHT22;6555;50.468;8.480;2024-01-11T08:59:35;-4.00;51.00
12981;DHT22;6555;50.468;8.480;2024-01-11T09:04:39;-3.80;51.10
12981;DHT22;6555;50.468;8.480;2024-01-11T09:09:42;-3.60;51.10
12981;DHT22;6555;50.468;8.480;2024-01-11T09:14:58;-3.50;51.10
12981;DHT22;6555;50.468;8.480;2024-01-11T09:20:01;-3.40;51.20
12981;DHT22;6555;50.468;8.480;2024-01-11T09:25:05;-3.30;51.30
12981;DHT22;6555;50.468;8.480;2024-01-11T09:30:11;-3.20;51.30
12981;DHT22;6555;50.468;8.480;2024-01-11T09:35:14;-3.00;51.50
12981;DHT22;6555;50.468;8.480;2024-01-11T09:40:18;-2.90;51.50
12981;DHT22;6555;50.468;8.480;2024-01-11T09:45:22;-2.80;51.50
12981;DHT22;6555;50.468;8.480;2024-01-11T09:50:28;-2.60;51.60
12981;DHT22;6555;50.468;8.480;2024-01-11T09:55:32;-2.50;51.70
12981;DHT22;6555;50.468;8.480;2024-01-11T10:00:37;-2.40;51.80
12981;DHT22;6555;50.468;8.480;2024-01-11T10:05:42;-2.20;52.10
12981;DHT22;6555;50.468;8.480;2024-01-11T10:10:47;-2.10;52.00
12981;DHT22;6555;50.468;8.480;2024-01-11T10:15:52;-1.90;51.90
12981;DHT22;6555;50.468;8.480;2024-01-11T10:20:57;-1.80;51.80
12981;DHT22;6555;50.468;8.480;2024-01-11T10:26:00;-1.60;52.00
12981;DHT22;6555;50.468;8.480;2024-01-11T10:31:05;-1.50;52.10
12981;DHT22;6555;50.468;8.480;2024-01-11T10:36:11;-1.30;52.20
12981;DHT22;6555;50.468;8.480;2024-01-11T10:41:18;-1.10;52.30
12981;DHT22;6555;50.468;8.480;2024-01-11T10:46:25;-1.00;52.20
12981;DHT22;6555;50.468;8.480;2024-01-11T10:51:31;-0.80;52.20
12981;DHT22;6555;50.468;8.480;2024-01-11T10:56:35;-0.70;52.20
12981;DHT22;6555;50.468;8.480;2024-01-11T11:01:43;-0.50;52.30
12981;DHT22;6555;50.468;8.480;2024-01-11T11:06:49;-0.40;52.20
12981;DHT22;6555;50.468;8.480;2024-01-11T11:11:53;-0.30;52.30
12981;DHT22;6555;50.468;8.480;2024-01-11T11:17:00;-0.10;52.50
12981;DHT22;6555;50.468;8.480;2024-01-11T11:22:04;0.00;52.40
12981;DHT22;6555;50.468;8.480;2024-01-11T11:27:08;0.20;53.10
12981;DHT22;6555;50.468;8.480;2024-01-11T11:32:14;0.30;52.40
12981;DHT22;6555;50.468;8.480;2024-01-11T11:37:22;0.50;52.50
12981;DHT22;6555;50.468;8.480;2024-01-11T11:42:26;0.60;52.40
12981;DHT22;6555;50.468;8.480;2024-01-11T11:47:35;0.80;52.40
12981;DHT22;6555;50.468;8.480;2024-01-11T11:52:40;0.90;52.40
12981;DHT22;6555;50.468;8.480;2024-01-11T11:57:45;1.10;52.40
12981;DHT22;6555;50.468;8.480;2024-01-11T12:02:50;1.20;52.40
12981;DHT22;6555;50.468;8.480;2024-01-11T12:07:56;1.40;52.50
12981;DHT22;6555;50.468;8.480;2024-01-11T12:12:59;1.50;52.50
12981;DHT22;6555;50.468;8.480;2024-01-11T12:18:04;1.70;52.60
12981;DHT22;6555;50.468;8.480;2024-01-11T12:23:09;1.90;52.60
12981;DHT22;6555;50.468;8.480;2024-01-11T12:28:12;2.10;52.60
12981;DHT22;6555;50.468;8.480;2024-01-11T12:33:17;2.30;52.50
12981;DHT22;6555;50.468;8.480;2024-01-11T12:38:21;2.50;52.30
12981;DHT22;6555;50.468;8.480;2024-01-11T12:43:24;2.70;52.20
12981;DHT22;6555;50.468;8.480;2024-01-11T12:48:29;2.90;52.10
12981;DHT22;6555;50.468;8.480;2024-01-11T12:53:35;3.10;52.00
12981;DHT22;6555;50.468;8.480;2024-01-11T12:58:39;3.20;51.80
12981;DHT22;6555;50.468;8.480;2024-01-11T13:03:45;3.30;51.80
12981;DHT22;6555;50.468;8.480;2024-01-11T13:08:49;3.50;51.80
12981;DHT22;6555;50.468;8.480;2024-01-11T13:13:52;3.50;51.70
12981;DHT22;6555;50.468;8.480;2024-01-11T13:18:57;3.70;51.70
12981;DHT22;6555;50.468;8.480;2024-01-11T13:24:00;3.80;51.70
12981;DHT22;6555;50.468;8.480;2024-01-11T13:29:03;3.90;51.70
12981;DHT22;6555;50.468;8.480;2024-01-11T13:34:07;4.00;51.60
12981;DHT22;6555;50.468;8.480;2024-01-11T13:39:10;4.10;51.60
12981;DHT22;6555;50.468;8.480;2024-01-11T13:44:13;4.30;51.80
12981;DHT22;6555;50.468;8.480;2024-01-11T13:49:18;4.40;51.70
12981;DHT22;6555;50.468;8.480;2024-01-11T13:54:24;4.60;51.70
12981;DHT22;6555;50.468;8.480;2024-01-11T13:59:27;4.70;51.80
12981;DHT22;6555;50.468;8.480;2024-01-11T14:04:31;4.90;51.70
12981;DHT22;6555;50.468;8.480;2024-01-11T14:09:35;5.10;51.70
12981;DHT22;6555;50.468;8.480;2024-01-11T14:14:38;5.30;51.70
12981;DHT22;6555;50.468;8.480;2024-01-11T14:19:43;5.50;51.60
12981;DHT22;6555;50.468;8.480;2024-01-11T14:24:46;5.70;51.50
12981;DHT22;6555;50.468;8.480;2024-01-11T14:29:49;5.90;51.50
12981;DHT22;6555;50.468;8.480;2024-01-11T14:34:54;6.00;51.30
12981;DHT22;6555;50.468;8.480;2024-01-11T14:39:57;6.20;51.10
12981;DHT22;6555;50.468;8.480;2024-01-11T14:45:01;6.30;51.10
12981;DHT22;6555;50.468;8.480;2024-01-11T14:50:08;6.40;50.90
12981;DHT22;6555;50.468;8.480;2024-01-11T14:55:12;6.40;50.60
12981;DHT22;6555;50.468;8.480;2024-01-11T15:00:16;6.40;50.50
12981;DHT22;6555;50.468;8.480;2024-01-11T15:05:21;6.40;50.50
12981;DHT22;6555;50.468;8.480;2024-01-11T15:10:24;6.30;50.20
12981;DHT22;6555;50.468;8.480;2024-01-11T15:15:28;6.20;50.00
12981;DHT22;6555;50.468;8.480;2024-01-11T15:20:33;6.10;50.00
12981;DHT22;6555;50.468;8.480;2024-01-11T15:25:36;6.00;50.00
12981;DHT22;6555;50.468;8.480;2024-01-11T15:30:39;5.90;49.90
12981;DHT22;6555;50.468;8.480;2024-01-11T15:35:44;5.70;49.20
12981;DHT22;6555;50.468;8.480;2024-01-11T15:40:48;5.50;49.00
12981;DHT22;6555;50.468;8.480;2024-01-11T15:45:51;5.10;48.80
12981;DHT22;6555;50.468;8.480;2024-01-11T15:50:55;4.80;48.90
12981;DHT22;6555;50.468;8.480;2024-01-11T15:55:59;4.60;49.00
12981;DHT22;6555;50.468;8.480;2024-01-11T16:01:02;4.40;49.20
12981;DHT22;6555;50.468;8.480;2024-01-11T16:06:08;4.20;49.30
12981;DHT22;6555;50.468;8.480;2024-01-11T16:11:11;4.00;49.40
12981;DHT22;6555;50.468;8.480;2024-01-11T16:16:15;3.90;49.50
12981;DHT22;6555;50.468;8.480;2024-01-11T16:21:19;3.70;50.00
12981;DHT22;6555;50.468;8.480;2024-01-11T16:26:22;3.60;49.30
12981;DHT22;6555;50.468;8.480;2024-01-11T16:31:25;3.40;49.40
12981;DHT22;6555;50.468;8.480;2024-01-11T16:36:35;3.30;49.60
12981;DHT22;6555;50.468;8.480;2024-01-11T16:41:39;3.20;49.50
12981;DHT22;6555;50.468;8.480;2024-01-11T16:46:43;3.10;49.50
12981;DHT22;6555;50.468;8.480;2024-01-11T16:51:48;2.90;49.30
12981;DHT22;6555;50.468;8.480;2024-01-11T16:56:52;2.80;49.30
12981;DHT22;6555;50.468;8.480;2024-01-11T17:01:55;2.60;49.50
12981;DHT22;6555;50.468;8.480;2024-01-11T17:06:59;2.50;49.70
12981;DHT22;6555;50.468;8.480;2024-01-11T17:12:03;2.40;49.80
12981;DHT22;6555;50.468;8.480;2024-01-11T17:17:06;2.40;49.90
12981;DHT22;6555;50.468;8.480;2024-01-11T17:22:12;2.30;49.90
12981;DHT22;6555;50.468;8.480;2024-01-11T17:27:15;2.20;49.60
12981;DHT22;6555;50.468;8.480;2024-01-11T17:32:18;2.10;49.60
12981;DHT22;6555;50.468;8.480;2024-01-11T17:37:23;2.00;49.50
12981;DHT22;6555;50.468;8.480;2024-01-11T17:42:27;1.90;49.70
12981;DHT22;6555;50.468;8.480;2024-01-11T17:47:30;1.90;49.70
12981;DHT22;6555;50.468;8.480;2024-01-11T17:52:34;1.80;49.70
12981;DHT22;6555;50.468;8.480;2024-01-11T17:57:37;1.70;49.80
12981;DHT22;6555;50.468;8.480;2024-01-11T18:02:40;1.60;49.80
12981;DHT22;6555;50.468;8.480;2024-01-11T18:07:45;1.60;49.90
12981;DHT22;6555;50.468;8.480;2024-01-11T18:12:48;1.60;49.80
12981;DHT22;6555;50.468;8.480;2024-01-11T18:17:51;1.50;49.60
12981;DHT22;6555;50.468;8.480;2024-01-11T18:22:56;1.40;49.50
12981;DHT22;6555;50.468;8.480;2024-01-11T18:27:59;1.30;49.60
12981;DHT22;6555;50.468;8.480;2024-01-11T18:33:03;1.20;49.70
12981;DHT22;6555;50.468;8.480;2024-01-11T18:38:09;1.00;49.50
12981;DHT22;6555;50.468;8.480;2024-01-11T18:43:12;0.90;49.60
12981;DHT22;6555;50.468;8.480;2024-01-11T18:48:15;0.80;49.70
12981;DHT22;6555;50.468;8.480;2024-01-11T18:53:21;0.80;49.90
12981;DHT22;6555;50.468;8.480;2024-01-11T18:58:24;0.70;50.00
12981;DHT22;6555;50.468;8.480;2024-01-11T19:03:28;0.70;50.00
12981;DHT22;6555;50.468;8.480;2024-01-11T19:08:32;0.70;50.10
12981;DHT22;6555;50.468;8.480;2024-01-11T19:13:35;0.70;50.10
12981;DHT22;6555;50.468;8.480;2024-01-11T19:18:38;0.70;50.20
12981;DHT22;6555;50.468;8.480;2024-01-11T19:23:43;0.60;50.00
12981;DHT22;6555;50.468;8.480;2024-01-11T19:28:46;0.60;50.00
12981;DHT22;6555;50.468;8.480;2024-01-11T19:33:49;0.60;50.10
12981;DHT22;6555;50.468;8.480;2024-01-11T19:38:54;0.60;50.20
12981;DHT22;6555;50.468;8.480;2024-01-11T19:44:02;0.60;50.20
12981;DHT22;6555;50.468;8.480;2024-01-11T19:49:05;0.60;50.20
12981;DHT22;6555;50.468;8.480;2024-01-11T19:54:10;0.60;50.20
12981;DHT22;6555;50.468;8.480;2024-01-11T19:59:13;0.60;50.30
12981;DHT22;6555;50.468;8.480;2024-01-11T20:04:17;0.60;50.20
12981;DHT22;6555;50.468;8.480;2024-01-11T20:09:23;0.60;50.30
12981;DHT22;6555;50.468;8.480;2024-01-11T20:14:26;0.60;50.20
12981;DHT22;6555;50.468;8.480;2024-01-11T20:19:30;0.60;50.30
12981;DHT22;6555;50.468;8.480;2024-01-11T20:24:35;0.60;50.30
12981;DHT22;6555;50.468;8.480;2024-01-11T20:29:40;0.60;50.30
12981;DHT22;6555;50.468;8.480;2024-01-11T20:34:43;0.50;50.40
12981;DHT22;6555;50.468;8.480;2024-01-11T20:39:47;0.60;50.40
12981;DHT22;6555;50.468;8.480;2024-01-11T20:44:51;0.50;50.40
12981;DHT22;6555;50.468;8.480;2024-01-11T20:49:54;0.50;50.40
12981;DHT22;6555;50.468;8.480;2024-01-11T20:54:59;0.50;50.60
12981;DHT22;6555;50.468;8.480;2024-01-11T21:00:02;0.50;50.70
12981;DHT22;6555;50.468;8.480;2024-01-11T21:05:10;0.50;50.70
12981;DHT22;6555;50.468;8.480;2024-01-11T21:10:17;0.50;50.70
12981;DHT22;6555;50.468;8.480;2024-01-11T21:15:20;0.60;50.80
12981;DHT22;6555;50.468;8.480;2024-01-11T21:20:23;0.60;51.00
12981;DHT22;6555;50.468;8.480;2024-01-11T21:25:28;0.70;51.30
12981;DHT22;6555;50.468;8.480;2024-01-11T21:30:31;0.80;51.50
12981;DHT22;6555;50.468;8.480;2024-01-11T21:35:34;0.80;51.50
12981;DHT22;6555;50.468;8.480;2024-01-11T21:40:38;0.90;51.50
12981;DHT22;6555;50.468;8.480;2024-01-11T21:45:43;1.00;51.60
12981;DHT22;6555;50.468;8.480;2024-01-11T21:50:46;1.10;51.80
12981;DHT22;6555;50.468;8.480;2024-01-11T21:55:51;1.20;51.80
12981;DHT22;6555;50.468;8.480;2024-01-11T22:00:55;1.30;51.90
12981;DHT22;6555;50.468;8.480;2024-01-11T22:05:58;1.30;51.90
12981;DHT22;6555;50.468;8.480;2024-01-11T22:11:03;1.40;52.60
12981;DHT22;6555;50.468;8.480;2024-01-11T22:16:06;1.50;51.90
12981;DHT22;6555;50.468;8.480;2024-01-11T22:21:09;1.50;51.80
12981;DHT22;6555;50.468;8.480;2024-01-11T22:26:19;1.50;51.80
12981;DHT22;6555;50.468;8.480;2024-01-11T22:31:22;1.60;52.50
12981;DHT22;6555;50.468;8.480;2024-01-11T22:36:25;1.60;51.80
12981;DHT22;6555;50.468;8.480;2024-01-11T22:41:37;1.60;51.80
12981;DHT22;6555;50.468;8.480;2024-01-11T22:46:40;1.60;51.80
12981;DHT22;6555;50.468;8.480;2024-01-11T22:51:43;1.60;51.80
12981;DHT22;6555;50.468;8.480;2024-01-11T22:56:48;1.70;51.90
12981;DHT22;6555;50.468;8.480;2024-01-11T23:01:53;1.70;52.60
12981;DHT22;6555;50.468;8.480;2024-01-11T23:06:56;1.70;51.90
12981;DHT22;6555;50.468;8.480;2024-01-11T23:12:01;1.70;51.80
12981;DHT22;6555;50.468;8.480;2024-01-11T23:17:07;1.70;51.70
12981;DHT22;6555;50.468;8.480;2024-01-11T23:22:10;1.70;51.60
12981;DHT22;6555;50.468;8.480;2024-01-11T23:27:15;1.70;51.70
12981;DHT22;6555;50.468;8.480;2024-01-11T23:32:18;1.70;51.80
12981;DHT22;6555;50.468;8.480;2024-01-11T23:37:21;1.60;51.80
12981;DHT22;6555;50.468;8.480;2024-01-11T23:42:26;1.60;51.90
12981;DHT22;6555;50.468;8.480;2024-01-11T23:47:28;1.60;51.80
12981;DHT22;6555;50.468;8.480;2024-01-11T23:52:34;1.60;51.80
12981;DHT22;6555;50.468;8.480;2024-01-11T23:57:38;1.60;51.90
